createdAt,value
2017-06-11T00:03:54.820Z,77.50
2017-06-11T00:06:23.115Z,77.80
2017-06-11T00:08:51.408Z,77.90
2017-06-11T00:11:21.085Z,77.60
2017-06-11T00:13:49.395Z,77.40
2017-06-11T00:16:18.260Z,77.20
2017-06-11T00:18:46.624Z,77.30
2017-06-11T00:21:14.944Z,77.40
2017-06-11T00:23:43.292Z,77.40
2017-06-11T00:26:11.603Z,77.30
2017-06-11T00:28:39.964Z,77.20
2017-06-11T00:31:09.612Z,77.50
2017-06-11T00:33:37.943Z,77.50
2017-06-11T00:36:06.360Z,77.70
2017-06-11T00:38:34.655Z,78.00
2017-06-11T00:41:02.992Z,78.50
2017-06-11T00:43:32.316Z,79.00
2017-06-11T00:46:00.619Z,79.20
2017-06-11T00:48:28.991Z,78.90
2017-06-11T00:50:57.279Z,79.00
2017-06-11T00:53:26.336Z,78.50
2017-06-11T00:55:55.516Z,78.40
2017-06-11T00:58:23.795Z,78.10
2017-06-11T01:00:52.847Z,78.30
2017-06-11T01:03:36.308Z,78.20
2017-06-11T01:06:04.595Z,78.40
2017-06-11T01:08:32.898Z,78.80
2017-06-11T01:11:01.814Z,79.10
2017-06-11T01:13:30.124Z,79.10
2017-06-11T01:15:59.198Z,79.30
2017-06-11T01:18:27.595Z,79.10
2017-06-11T01:20:55.877Z,79.10
2017-06-11T01:23:24.171Z,79.30
2017-06-11T01:25:52.520Z,79.40
2017-06-11T01:28:20.809Z,79.30
2017-06-11T01:30:49.104Z,78.90
2017-06-11T01:33:19.173Z,78.90
2017-06-11T01:35:47.508Z,78.90
2017-06-11T01:38:15.884Z,78.40
2017-06-11T01:40:44.172Z,78.20
2017-06-11T01:43:12.448Z,78.20
2017-06-11T01:45:41.564Z,78.10
2017-06-11T01:48:09.862Z,78.10
2017-06-11T01:50:38.147Z,77.90
2017-06-11T01:53:12.224Z,78.50
2017-06-11T01:55:40.512Z,78.40
2017-06-11T01:58:09.565Z,79.20
2017-06-11T02:00:37.927Z,79.00
2017-06-11T02:03:06.215Z,79.20
2017-06-11T02:05:35.275Z,79.30
2017-06-11T02:08:03.603Z,79.30
2017-06-11T02:10:31.895Z,79.30
2017-06-11T02:13:00.243Z,79.40
2017-06-11T02:15:28.567Z,79.40
2017-06-11T02:17:56.862Z,79.20
2017-06-11T02:20:25.200Z,79.20
2017-06-11T02:22:55.404Z,79.80
2017-06-11T02:25:23.708Z,79.60
2017-06-11T02:27:52.095Z,79.40
2017-06-11T02:30:21.161Z,79.90
2017-06-11T02:32:49.453Z,79.10
2017-06-11T02:35:17.795Z,78.60
2017-06-11T02:37:46.855Z,79.80
2017-06-11T02:40:15.229Z,79.60
2017-06-11T02:42:43.520Z,79.80
2017-06-11T02:45:11.813Z,80.00
2017-06-11T02:47:40.160Z,80.30
2017-06-11T02:50:08.493Z,80.80
2017-06-11T02:52:37.579Z,80.40
2017-06-11T02:55:06.641Z,80.60
2017-06-11T02:57:35.011Z,80.60
2017-06-11T03:00:03.293Z,80.00
2017-06-11T03:02:31.640Z,80.00
2017-06-11T03:05:00.703Z,80.60
2017-06-11T03:07:28.995Z,80.50
2017-06-11T03:09:57.332Z,80.30
2017-06-11T03:12:25.690Z,80.60
2017-06-11T03:14:54.039Z,80.70
2017-06-11T03:17:22.329Z,81.30
2017-06-11T03:19:50.607Z,81.60
2017-06-11T03:22:18.956Z,81.70
2017-06-11T03:24:48.010Z,81.30
2017-06-11T03:27:16.301Z,81.30
2017-06-11T03:29:45.392Z,81.00
2017-06-11T03:32:13.716Z,81.00
2017-06-11T03:34:42.837Z,81.00
2017-06-11T03:37:11.532Z,80.90
2017-06-11T03:39:39.817Z,80.90
2017-06-11T03:42:08.169Z,80.60
2017-06-11T03:44:36.500Z,80.10
2017-06-11T03:47:04.788Z,78.60
2017-06-11T03:49:37.992Z,77.30
2017-06-11T03:52:06.279Z,76.40
2017-06-11T03:54:35.343Z,77.50
2017-06-11T03:57:03.705Z,77.50
2017-06-11T03:59:31.990Z,79.50
2017-06-11T04:02:00.309Z,79.40
2017-06-11T04:04:28.651Z,79.00
2017-06-11T04:06:56.930Z,77.50
2017-06-11T04:09:25.235Z,76.90
2017-06-11T04:11:53.623Z,76.30
2017-06-11T04:14:21.920Z,74.90
2017-06-11T04:16:50.252Z,76.20
2017-06-11T04:19:18.639Z,75.00
2017-06-11T04:21:46.924Z,75.10
2017-06-11T04:24:15.202Z,75.40
2017-06-11T04:26:44.303Z,76.80
2017-06-11T04:29:12.592Z,76.80
2017-06-11T04:31:40.879Z,75.40
2017-06-11T04:34:09.231Z,74.20
2017-06-11T04:36:37.503Z,75.10
2017-06-11T04:39:05.787Z,77.10
2017-06-11T04:41:34.108Z,74.30
2017-06-11T04:44:03.369Z,76.50
2017-06-11T04:46:31.695Z,75.00
2017-06-11T04:49:00.748Z,75.20
2017-06-11T04:51:29.070Z,75.20
2017-06-11T04:53:57.395Z,74.40
2017-06-11T04:56:25.678Z,76.50
2017-06-11T04:58:54.003Z,73.30
2017-06-11T05:01:22.287Z,71.40
2017-06-11T05:06:47.660Z,70.90
2017-06-11T05:09:15.991Z,69.60
2017-06-11T05:11:44.280Z,69.20
2017-06-11T05:14:12.562Z,69.60
2017-06-11T05:16:41.664Z,69.60
2017-06-11T05:19:09.960Z,69.60
2017-06-11T05:21:38.242Z,68.80
2017-06-11T05:24:06.572Z,68.00
2017-06-11T05:26:34.852Z,68.80
2017-06-11T05:29:03.184Z,69.20
2017-06-11T05:31:31.489Z,69.20
2017-06-11T05:33:59.773Z,69.20
2017-06-11T05:36:28.879Z,67.90
2017-06-11T05:38:57.168Z,67.80
2017-06-11T05:41:25.455Z,66.70
2017-06-11T05:43:53.783Z,65.30
2017-06-11T05:46:22.076Z,65.70
2017-06-11T05:48:50.420Z,64.40
2017-06-11T05:51:18.717Z,66.00
2017-06-11T05:53:47.771Z,65.20
2017-06-11T05:56:16.103Z,65.20
2017-06-11T05:58:44.383Z,64.80
2017-06-11T06:01:12.677Z,64.20
2017-06-11T06:03:41.000Z,64.70
2017-06-11T06:06:09.301Z,64.30
2017-06-11T06:08:37.624Z,64.30
2017-06-11T06:11:05.950Z,65.10
2017-06-11T06:13:34.240Z,63.80
2017-06-11T06:16:02.600Z,63.40
2017-06-11T06:18:30.905Z,60.40
2017-06-11T06:20:59.188Z,61.20
2017-06-11T06:23:28.285Z,59.20
2017-06-11T06:25:56.571Z,59.20
2017-06-11T06:28:24.863Z,58.90
2017-06-11T06:30:53.221Z,59.00
2017-06-11T06:33:21.509Z,57.40
2017-06-11T06:35:50.567Z,57.50
2017-06-11T06:38:18.899Z,57.20
2017-06-11T06:40:47.184Z,55.00
2017-06-11T06:43:15.471Z,54.30
2017-06-11T06:45:44.587Z,54.80
2017-06-11T06:48:12.864Z,54.80
2017-06-11T06:50:41.555Z,53.70
2017-06-11T06:53:09.887Z,53.80
2017-06-11T06:55:40.134Z,51.80
2017-06-11T06:58:08.451Z,51.40
2017-06-11T07:00:36.737Z,51.50
2017-06-11T07:03:05.072Z,51.60
2017-06-11T07:05:33.395Z,51.90
2017-06-11T07:10:56.193Z,52.20
2017-06-11T07:13:24.476Z,50.20
2017-06-11T07:15:52.769Z,49.50
2017-06-11T07:18:21.104Z,49.10
2017-06-11T07:20:51.380Z,48.10
2017-06-11T07:23:19.692Z,48.70
2017-06-11T07:25:48.804Z,48.20
2017-06-11T07:28:17.092Z,48.10
2017-06-11T07:30:45.386Z,48.80
2017-06-11T07:33:13.744Z,47.80
2017-06-11T07:35:42.072Z,47.70
2017-06-11T07:38:12.352Z,49.00
2017-06-11T07:40:40.631Z,48.60
2017-06-11T07:43:08.959Z,48.30
2017-06-11T07:45:38.032Z,48.20
2017-06-11T07:48:07.088Z,48.90
2017-06-11T07:50:35.407Z,48.80
2017-06-11T07:53:03.727Z,47.20
2017-06-11T07:55:32.028Z,45.00
2017-06-11T07:58:00.383Z,45.60
2017-06-11T08:00:28.686Z,44.90
2017-06-11T08:02:56.996Z,42.80
2017-06-11T08:05:25.337Z,41.40
2017-06-11T08:08:02.671Z,41.40
2017-06-11T08:10:31.004Z,40.90
2017-06-11T08:12:59.288Z,41.60
2017-06-11T08:15:27.640Z,40.80
2017-06-11T08:17:55.927Z,41.10
2017-06-11T08:20:24.261Z,41.20
2017-06-11T08:22:52.602Z,39.60
2017-06-11T08:25:20.970Z,41.00
2017-06-11T08:27:49.264Z,40.90
2017-06-11T08:30:17.550Z,40.30
2017-06-11T08:32:45.881Z,40.10
2017-06-11T08:35:37.935Z,41.70
2017-06-11T08:38:11.041Z,39.20
2017-06-11T08:40:40.110Z,40.00
2017-06-11T08:43:08.425Z,39.90
2017-06-11T08:45:41.556Z,38.40
2017-06-11T08:48:09.843Z,37.80
2017-06-11T08:50:38.127Z,38.50
2017-06-11T08:53:08.483Z,39.80
2017-06-11T08:55:37.605Z,39.10
2017-06-11T08:58:05.900Z,39.10
2017-06-11T09:00:34.186Z,39.30
2017-06-11T09:03:02.526Z,38.10
2017-06-11T09:05:30.811Z,39.50
2017-06-11T09:08:00.887Z,39.30
2017-06-11T09:10:29.171Z,39.20
2017-06-11T09:12:57.463Z,37.80
2017-06-11T09:15:25.978Z,37.30
2017-06-11T09:17:56.285Z,36.20
2017-06-11T09:20:24.715Z,35.40
2017-06-11T09:22:53.009Z,37.20
2017-06-11T09:25:21.307Z,35.70
2017-06-11T09:27:49.636Z,36.30
2017-06-11T09:30:17.973Z,34.10
2017-06-11T09:32:46.260Z,36.70
2017-06-11T09:35:14.611Z,37.80
2017-06-11T09:37:55.822Z,38.50
2017-06-11T09:40:24.112Z,38.40
2017-06-11T09:42:52.399Z,36.00
2017-06-11T09:45:24.753Z,39.80
2017-06-11T09:47:53.039Z,38.30
2017-06-11T09:50:22.107Z,39.40
2017-06-11T09:52:50.435Z,39.30
2017-06-11T09:55:18.733Z,39.40
2017-06-11T09:57:47.015Z,37.60
2017-06-11T10:00:16.114Z,38.00
2017-06-11T10:02:51.204Z,37.90
2017-06-11T10:05:19.593Z,38.20
2017-06-11T10:07:47.926Z,39.00
2017-06-11T10:10:18.220Z,36.00
2017-06-11T10:12:46.508Z,35.90
2017-06-11T10:15:15.682Z,38.30
2017-06-11T10:17:44.776Z,36.80
2017-06-11T10:20:13.868Z,35.40
2017-06-11T10:22:42.216Z,35.30
2017-06-11T10:25:10.511Z,35.70
2017-06-11T10:27:38.835Z,35.70
2017-06-11T10:30:07.177Z,33.70
2017-06-11T10:32:35.468Z,35.40
2017-06-11T10:35:03.812Z,32.70
2017-06-11T10:37:32.103Z,33.10
2017-06-11T10:40:00.453Z,32.00
2017-06-11T10:42:29.498Z,33.30
2017-06-11T10:44:57.787Z,33.20
2017-06-11T10:47:26.896Z,33.20
2017-06-11T10:49:55.180Z,33.10
2017-06-11T10:52:23.463Z,32.40
2017-06-11T10:54:51.791Z,31.70
2017-06-11T10:57:20.070Z,31.30
2017-06-11T10:59:48.361Z,31.60
2017-06-11T11:02:16.698Z,30.20
2017-06-11T11:04:44.984Z,32.60
2017-06-11T11:07:15.276Z,32.10
2017-06-11T11:09:47.585Z,32.70
2017-06-11T11:12:15.912Z,32.30
2017-06-11T11:14:44.967Z,33.80
2017-06-11T11:17:13.287Z,33.70
2017-06-11T11:19:41.620Z,32.70
2017-06-11T11:22:11.843Z,33.60
2017-06-11T11:24:40.187Z,32.00
2017-06-11T11:27:08.478Z,30.00
2017-06-11T11:29:37.526Z,31.80
2017-06-11T11:32:05.865Z,32.40
2017-06-11T11:34:34.147Z,30.50
2017-06-11T11:37:02.495Z,29.90
2017-06-11T11:39:30.793Z,31.00
2017-06-11T11:41:59.857Z,30.40
2017-06-11T11:44:28.384Z,31.10
2017-06-11T11:46:56.671Z,31.00
2017-06-11T11:49:24.960Z,30.30
2017-06-11T11:51:54.055Z,30.50
2017-06-11T11:54:22.342Z,30.20
2017-06-11T11:56:50.695Z,31.90
2017-06-11T11:59:23.961Z,32.80
2017-06-11T12:01:52.300Z,33.50
2017-06-11T12:04:21.354Z,31.90
2017-06-11T12:06:53.631Z,31.80
2017-06-11T12:09:21.919Z,29.60
2017-06-11T12:11:50.242Z,29.10
2017-06-11T12:14:18.579Z,30.70
2017-06-11T12:16:46.867Z,28.80
2017-06-11T12:19:15.147Z,29.00
2017-06-11T12:21:45.106Z,31.00
2017-06-11T12:24:13.400Z,31.00
2017-06-11T12:26:41.702Z,30.00
2017-06-11T12:29:10.038Z,32.20
2017-06-11T12:31:38.531Z,32.80
2017-06-11T12:34:06.818Z,29.20
2017-06-11T12:36:38.164Z,28.50
2017-06-11T12:39:06.461Z,31.70
2017-06-11T12:41:36.688Z,32.00
2017-06-11T12:44:05.023Z,30.70
2017-06-11T12:46:33.313Z,30.00
2017-06-11T12:49:01.643Z,30.60
2017-06-11T12:51:30.757Z,30.90
2017-06-11T12:53:59.087Z,30.90
2017-06-11T12:56:28.148Z,29.20
2017-06-11T12:58:56.434Z,29.10
2017-06-11T13:01:24.767Z,30.10
2017-06-11T13:03:53.056Z,30.20
2017-06-11T13:06:21.351Z,30.40
2017-06-11T13:08:49.679Z,32.60
2017-06-11T13:11:18.778Z,34.20
2017-06-11T13:13:47.068Z,34.10
2017-06-11T13:16:15.351Z,29.00
2017-06-11T13:18:43.689Z,30.10
2017-06-11T13:21:12.024Z,30.50
2017-06-11T13:23:40.327Z,31.80
2017-06-11T13:26:08.629Z,29.70
2017-06-11T13:28:37.744Z,29.80
2017-06-11T13:31:06.035Z,29.80
2017-06-11T13:33:35.275Z,28.90
2017-06-11T13:36:03.602Z,29.90
2017-06-11T13:38:32.668Z,29.70
2017-06-11T13:41:01.004Z,29.40
2017-06-11T13:43:29.304Z,30.20
2017-06-11T13:45:58.421Z,32.20
2017-06-11T13:48:35.659Z,31.50
2017-06-11T13:51:03.996Z,31.10
2017-06-11T13:53:32.280Z,29.70
2017-06-11T13:56:01.377Z,31.20
2017-06-11T13:58:30.423Z,30.30
2017-06-11T14:00:58.750Z,30.30
2017-06-11T14:03:27.035Z,29.90
2017-06-11T14:05:55.372Z,29.30
2017-06-11T14:08:38.508Z,27.50
2017-06-11T14:11:06.846Z,28.00
2017-06-11T14:13:35.137Z,29.30
2017-06-11T14:16:03.480Z,30.00
2017-06-11T14:18:35.808Z,29.20
2017-06-11T14:21:04.135Z,29.70
2017-06-11T14:23:33.249Z,31.10
2017-06-11T14:26:01.557Z,30.50
2017-06-11T14:28:29.851Z,29.40
2017-06-11T14:30:58.992Z,28.50
2017-06-11T14:33:27.281Z,28.40
2017-06-11T14:41:49.612Z,28.40
2017-06-11T14:44:17.913Z,29.60
2017-06-11T14:46:46.204Z,28.30
2017-06-11T14:49:15.497Z,28.10
2017-06-11T14:51:43.822Z,27.20
2017-06-11T14:54:12.161Z,28.20
2017-06-11T14:56:40.465Z,28.20
2017-06-11T14:59:08.755Z,25.80
2017-06-11T15:01:37.104Z,25.80
2017-06-11T15:04:05.393Z,24.70
2017-06-11T15:06:33.667Z,23.90
2017-06-11T15:09:02.003Z,23.00
2017-06-11T15:11:30.289Z,22.00
2017-06-11T15:13:59.407Z,21.20
2017-06-11T15:16:35.374Z,21.20
2017-06-11T15:19:03.715Z,20.20
2017-06-11T15:21:32.058Z,19.40
2017-06-11T15:24:00.407Z,20.10
2017-06-11T15:26:32.684Z,19.10
2017-06-11T15:29:01.023Z,19.20
2017-06-11T15:31:29.308Z,19.10
2017-06-11T15:33:57.606Z,18.50
2017-06-11T15:36:25.932Z,19.20
2017-06-11T15:38:54.232Z,18.70
2017-06-11T15:41:26.376Z,17.90
2017-06-11T15:43:54.667Z,17.90
2017-06-11T15:46:22.964Z,17.70
2017-06-11T15:48:55.348Z,17.70
2017-06-11T15:51:23.680Z,16.60
2017-06-11T15:54:03.897Z,16.70
2017-06-11T15:56:32.523Z,16.50
2017-06-11T15:59:00.899Z,17.10
2017-06-11T16:01:33.720Z,18.00
2017-06-11T16:04:02.047Z,18.30
2017-06-11T16:06:31.111Z,17.40
2017-06-11T16:08:59.447Z,17.40
2017-06-11T16:11:27.737Z,18.20
2017-06-11T16:13:56.085Z,17.50
2017-06-11T16:16:24.379Z,17.50
2017-06-11T16:18:52.681Z,16.90
2017-06-11T16:21:21.914Z,16.90
2017-06-11T16:23:51.022Z,16.70
2017-06-11T16:26:19.324Z,16.70
2017-06-11T16:28:47.663Z,17.60
2017-06-11T16:31:15.995Z,19.80
2017-06-11T16:33:44.291Z,21.50
2017-06-11T16:36:13.481Z,23.70
2017-06-11T16:38:41.820Z,24.50
2017-06-11T16:41:10.160Z,26.40
2017-06-11T16:43:38.473Z,27.30
2017-06-11T16:46:06.772Z,28.90
2017-06-11T16:48:35.139Z,29.40
2017-06-11T16:51:04.205Z,29.50
2017-06-11T16:53:32.539Z,29.80
2017-06-11T16:56:00.871Z,30.90
2017-06-11T16:58:29.154Z,30.10
2017-06-11T17:00:57.450Z,31.90
2017-06-11T17:03:25.792Z,31.40
2017-06-11T17:05:54.088Z,32.10
2017-06-11T17:08:22.439Z,32.10
2017-06-11T17:10:50.740Z,32.70
2017-06-11T17:13:19.161Z,33.20
2017-06-11T17:15:48.275Z,35.20
2017-06-11T17:18:17.468Z,35.20
2017-06-11T17:20:45.784Z,34.20
2017-06-11T17:23:14.132Z,35.30
2017-06-11T17:25:42.415Z,37.60
2017-06-11T17:28:10.722Z,35.40
2017-06-11T17:30:39.169Z,35.00
2017-06-11T17:33:08.433Z,35.10
2017-06-11T17:35:37.623Z,36.20
2017-06-11T17:38:06.768Z,36.50
2017-06-11T17:40:35.056Z,36.50
2017-06-11T17:43:03.360Z,36.90
2017-06-11T17:45:31.724Z,38.00
2017-06-11T17:48:00.083Z,37.10
2017-06-11T17:50:28.399Z,37.10
2017-06-11T17:52:56.747Z,38.00
2017-06-11T17:55:25.051Z,38.80
2017-06-11T17:57:53.335Z,38.40
2017-06-11T18:00:21.703Z,39.90
2017-06-11T18:02:49.991Z,40.00
2017-06-11T18:05:18.293Z,39.50
2017-06-11T18:07:47.399Z,40.00
2017-06-11T18:10:15.695Z,40.00
2017-06-11T18:12:43.982Z,40.00
2017-06-11T18:15:13.126Z,39.90
2017-06-11T18:17:41.416Z,39.90
2017-06-11T18:20:09.715Z,40.40
2017-06-11T18:22:38.080Z,40.70
2017-06-11T18:25:06.381Z,40.30
2017-06-11T18:27:34.690Z,41.10
2017-06-11T18:30:03.831Z,40.90
2017-06-11T18:32:32.111Z,40.80
2017-06-11T18:35:00.403Z,41.50
2017-06-11T18:37:32.726Z,42.80
2017-06-11T18:40:01.007Z,42.40
2017-06-11T18:42:29.300Z,43.60
2017-06-11T18:44:57.651Z,44.00
2017-06-11T18:47:25.959Z,44.00
2017-06-11T18:49:54.247Z,43.50
2017-06-11T18:52:23.363Z,44.60
2017-06-11T18:54:51.664Z,44.60
2017-06-11T18:57:19.960Z,44.40
2017-06-11T18:59:49.051Z,45.10
2017-06-11T19:02:17.343Z,44.90
2017-06-11T19:04:45.688Z,45.90
2017-06-11T19:07:13.980Z,46.60
2017-06-11T19:09:42.271Z,48.40
2017-06-11T19:12:10.600Z,49.10
2017-06-11T19:14:38.916Z,49.10
2017-06-11T19:17:07.265Z,51.30
2017-06-11T19:19:36.522Z,53.00
2017-06-11T19:22:05.815Z,52.90
2017-06-11T19:24:34.192Z,54.00
2017-06-11T19:27:02.624Z,53.90
2017-06-11T19:29:30.923Z,55.80
2017-06-11T19:32:00.043Z,51.80
2017-06-11T19:34:28.335Z,51.70
2017-06-11T19:36:56.667Z,51.80
2017-06-11T19:39:25.002Z,52.60
2017-06-11T19:41:53.300Z,54.90
2017-06-11T19:44:21.795Z,54.40
2017-06-11T19:46:50.915Z,55.40
2017-06-11T19:49:19.203Z,55.40
2017-06-11T19:51:48.391Z,57.50
2017-06-11T19:54:16.688Z,57.30
2017-06-11T19:56:45.012Z,58.10
2017-06-11T19:59:13.381Z,56.40
2017-06-11T20:01:41.687Z,59.60
2017-06-11T20:04:09.975Z,57.20
2017-06-11T20:06:38.312Z,58.80
2017-06-11T20:09:07.389Z,59.00
2017-06-11T20:11:35.699Z,59.00
2017-06-11T20:14:04.108Z,59.10
2017-06-11T20:16:32.406Z,57.90
2017-06-11T20:19:01.061Z,58.00
2017-06-11T20:21:30.120Z,57.50
2017-06-11T20:23:58.412Z,57.50
2017-06-11T20:26:26.760Z,58.50
2017-06-11T20:28:56.725Z,60.60
2017-06-11T20:31:25.069Z,59.90
2017-06-11T20:33:53.362Z,59.30
2017-06-11T20:36:21.666Z,59.50
2017-06-11T20:38:50.030Z,58.70
2017-06-11T20:41:20.294Z,57.40
2017-06-11T20:43:48.633Z,57.80
2017-06-11T20:46:18.756Z,57.00
2017-06-11T20:48:47.148Z,55.30
2017-06-11T20:51:15.469Z,55.50
2017-06-11T20:53:52.531Z,55.70
2017-06-11T20:56:20.829Z,55.70
2017-06-11T20:58:49.967Z,56.90
2017-06-11T21:01:18.316Z,56.80
2017-06-11T21:03:46.620Z,56.90
2017-06-11T21:06:14.906Z,56.20
2017-06-11T21:08:44.000Z,54.90
2017-06-11T21:11:12.314Z,54.90
2017-06-11T21:13:41.452Z,55.10
2017-06-11T21:16:09.749Z,55.40
2017-06-11T21:18:38.028Z,54.80
2017-06-11T21:21:06.451Z,54.20
2017-06-11T21:23:34.739Z,55.40
2017-06-11T21:26:03.108Z,57.30
2017-06-11T21:28:31.399Z,58.20
2017-06-11T21:31:00.460Z,58.30
2017-06-11T21:33:28.795Z,58.30
2017-06-11T21:35:57.097Z,58.00
2017-06-11T21:38:26.169Z,60.00
2017-06-11T21:40:54.503Z,60.00
2017-06-11T21:43:22.791Z,62.30
2017-06-11T21:45:51.134Z,62.60
2017-06-11T21:48:19.445Z,66.10
2017-06-11T21:50:47.757Z,68.40
2017-06-11T21:53:16.098Z,69.80
2017-06-11T21:55:44.387Z,69.30
2017-06-11T21:58:12.685Z,70.20
2017-06-11T22:00:41.814Z,72.10
2017-06-11T22:03:10.097Z,72.10
2017-06-11T22:05:38.383Z,72.70
2017-06-11T22:08:07.480Z,76.10
2017-06-11T22:10:35.803Z,76.10
2017-06-11T22:13:04.089Z,75.90
2017-06-11T22:15:33.216Z,75.00
2017-06-11T22:18:01.507Z,75.00
2017-06-11T22:20:29.800Z,74.60
2017-06-11T22:22:58.943Z,72.80
2017-06-11T22:25:27.229Z,75.00
2017-06-11T22:28:14.229Z,74.00
2017-06-11T22:30:43.284Z,72.10
2017-06-11T22:33:11.625Z,72.10
2017-06-11T22:35:39.916Z,72.30
2017-06-11T22:38:08.204Z,72.70
2017-06-11T22:40:36.529Z,73.80
2017-06-11T22:43:04.826Z,74.60
2017-06-11T22:45:33.888Z,75.00
2017-06-11T22:48:02.218Z,75.00
2017-06-11T22:50:36.385Z,76.00
2017-06-11T22:53:04.725Z,74.70
2017-06-11T22:55:33.016Z,76.60
2017-06-11T22:58:01.303Z,76.40
2017-06-11T23:00:29.657Z,77.30
2017-06-11T23:02:57.944Z,76.10
2017-06-11T23:05:26.235Z,77.00
2017-06-11T23:07:55.340Z,75.50
2017-06-11T23:10:27.495Z,75.50
2017-06-11T23:12:56.620Z,75.80
2017-06-11T23:15:24.906Z,74.80
2017-06-11T23:17:53.195Z,73.90
2017-06-11T23:20:21.514Z,74.90
2017-06-11T23:22:49.817Z,75.00
2017-06-11T23:25:18.147Z,75.40
2017-06-11T23:27:46.439Z,76.20
2017-06-11T23:30:14.735Z,75.90
2017-06-11T23:32:43.096Z,76.20
2017-06-11T23:35:11.439Z,76.60
2017-06-11T23:37:39.732Z,73.40
2017-06-11T23:40:08.066Z,74.10
2017-06-11T23:42:36.359Z,74.80
2017-06-11T23:45:04.673Z,75.20
2017-06-11T23:47:33.033Z,75.50
2017-06-11T23:50:01.386Z,76.80
2017-06-11T23:52:29.731Z,76.00
2017-06-11T23:54:58.779Z,75.20
2017-06-11T23:57:27.063Z,75.20
2017-06-11T23:59:56.196Z,74.20
